Time;durP1;ratioP1;P1;durP2;ratioP2;P2;SDS_P1;SDS_P2;PMS_P1;PMS_P2;Temp;Humidity;BMP_temperature;BMP_pressure;BME280_temperature;BME280_humidity;BME280_pressure;Samples;Min_cycle;Max_cycle;Signal;HPM_P1;HPM_P2
2023/09/16 12:41:36;;;;;;;4.50;2.70;;;25.30;99.90;;;;;;6208480;22;1829896;-95
2023/09/16 12:44:02;;;;;;;4.85;2.92;;;25.30;99.90;;;;;;6227413;23;20024;-95
2023/09/16 12:46:30;;;;;;;3.25;2.95;;;25.20;99.90;;;;;;6244032;23;20065;-96
2023/09/16 12:48:56;;;;;;;4.18;2.88;;;25.40;99.90;;;;;;6244467;23;20073;-96
2023/09/16 12:51:27;;;;;;;2.85;2.55;;;25.40;99.90;;;;;;6266638;23;20082;-96
2023/09/16 12:53:53;;;;;;;3.15;2.90;;;25.30;99.90;;;;;;6225626;23;20016;-94
2023/09/16 12:56:19;;;;;;;3.38;3.03;;;25.40;99.90;;;;;;6231616;23;20007;-96
2023/09/16 12:58:48;;;;;;;3.15;2.70;;;25.40;99.90;;;;;;6232565;23;20024;-96
2023/09/16 13:01:18;;;;;;;4.20;3.35;;;25.60;99.90;;;;;;6221476;23;20035;-96
2023/09/16 13:03:45;;;;;;;5.18;3.75;;;25.60;99.90;;;;;;6250063;23;20095;-92
2023/09/16 13:06:10;;;;;;;4.07;3.13;;;25.60;99.90;;;;;;6246217;23;20011;-93
2023/09/16 13:08:37;;;;;;;3.72;3.42;;;25.60;99.90;;;;;;6227224;23;20296;-94
2023/09/16 13:11:03;;;;;;;3.47;3.17;;;25.70;99.90;;;;;;6229307;23;20081;-92
2023/09/16 13:13:30;;;;;;;4.95;3.53;;;25.70;99.90;;;;;;6223918;23;20018;-94
2023/09/16 13:15:57;;;;;;;3.50;3.20;;;25.70;99.90;;;;;;6234550;23;20008;-94
2023/09/16 13:18:24;;;;;;;4.10;3.70;;;25.80;99.90;;;;;;6227696;23;20051;-90
2023/09/16 13:20:57;;;;;;;4.93;4.43;;;25.60;99.90;;;;;;6226009;23;20020;-90
2023/09/16 13:23:26;;;;;;;3.75;3.40;;;25.70;99.90;;;;;;6223747;23;20024;-91
2023/09/16 13:26:11;;;;;;;4.07;3.30;;;25.80;99.90;;;;;;6225295;23;20045;-93
2023/09/16 13:28:38;;;;;;;4.13;3.72;;;25.90;99.90;;;;;;6221897;23;20095;-92
2023/09/16 13:31:03;;;;;;;4.28;3.75;;;25.90;99.90;;;;;;6222818;23;20016;-92
2023/09/16 13:33:47;;;;;;;5.93;3.15;;;25.90;99.90;;;;;;6223121;23;20150;-96
2023/09/16 13:36:13;;;;;;;3.97;3.40;;;26.00;99.90;;;;;;6226826;23;20012;-96
2023/09/16 13:38:39;;;;;;;4.70;3.88;;;26.00;99.90;;;;;;6224704;23;20016;-95
2023/09/16 13:41:04;;;;;;;5.60;3.30;;;25.80;99.90;;;;;;6219743;23;20018;-93
2023/09/16 13:43:30;;;;;;;3.97;3.58;;;26.00;99.90;;;;;;6219952;23;20050;-95
2023/09/16 13:45:56;;;;;;;4.30;3.88;;;25.90;99.90;;;;;;6247934;23;20023;-96
2023/09/16 13:48:23;;;;;;;3.22;2.92;;;25.80;99.90;;;;;;6225592;23;20023;-96
2023/09/16 13:50:52;;;;;;;3.30;3.00;;;25.90;99.90;;;;;;6231754;23;20048;-96
2023/09/16 13:53:18;;;;;;;3.70;3.22;;;25.70;99.90;;;;;;6224757;23;20262;-95
2023/09/16 13:55:47;;;;;;;3.33;2.75;;;25.80;99.90;;;;;;6221414;23;20012;-96
2023/09/16 13:58:13;;;;;;;4.57;3.80;;;25.70;99.90;;;;;;6228893;23;20023;-96
2023/09/16 14:00:39;;;;;;;4.18;3.63;;;25.60;99.90;;;;;;6222321;23;20016;-94
2023/09/16 14:03:05;;;;;;;3.67;3.30;;;25.60;99.90;;;;;;6223164;23;20015;-94
2023/09/16 14:05:32;;;;;;;3.28;2.97;;;25.60;99.90;;;;;;6224364;23;20039;-96
2023/09/16 14:07:58;;;;;;;4.93;2.80;;;25.70;99.90;;;;;;6223683;23;20016;-94
2023/09/16 14:10:26;;;;;;;4.05;3.00;;;25.80;99.90;;;;;;6224992;23;20071;-94
2023/09/16 14:12:58;;;;;;;4.85;3.10;;;25.70;99.90;;;;;;6233789;23;20024;-94
2023/09/16 14:15:24;;;;;;;5.65;3.13;;;25.70;99.90;;;;;;6230608;23;20000;-94
2023/09/16 14:17:50;;;;;;;3.55;3.13;;;25.70;99.90;;;;;;6228553;23;20020;-95
2023/09/16 14:20:17;;;;;;;3.17;2.65;;;25.60;99.90;;;;;;6221405;23;20468;-96
2023/09/16 14:22:43;;;;;;;3.73;2.87;;;25.70;99.90;;;;;;6222283;23;20017;-93
2023/09/16 14:25:10;;;;;;;2.95;2.70;;;25.60;99.90;;;;;;6219003;23;20008;-93
2023/09/16 14:27:36;;;;;;;3.20;2.90;;;25.60;99.90;;;;;;6219295;23;20010;-94
2023/09/16 14:30:02;;;;;;;4.05;2.72;;;25.70;99.90;;;;;;6220284;23;20082;-93
2023/09/16 14:32:29;;;;;;;2.63;2.42;;;25.50;99.90;;;;;;6218371;23;20008;-94
2023/09/16 14:34:55;;;;;;;3.15;2.85;;;25.40;99.90;;;;;;6219720;23;20012;-93
2023/09/16 14:37:23;;;;;;;5.10;3.00;;;25.30;99.90;;;;;;6219260;23;20012;-93
2023/09/16 14:39:48;;;;;;;3.50;3.20;;;25.20;99.90;;;;;;6219643;23;20024;-93
2023/09/16 14:42:16;;;;;;;4.47;3.00;;;25.10;99.90;;;;;;6220296;23;20012;-93
2023/09/16 14:44:42;;;;;;;4.30;3.00;;;25.20;99.90;;;;;;6221589;23;20039;-93
2023/09/16 14:47:07;;;;;;;5.78;3.25;;;25.30;99.90;;;;;;6232005;23;20417;-93
2023/09/16 14:49:33;;;;;;;4.38;3.05;;;25.30;99.90;;;;;;6238445;23;20019;-92
2023/09/16 14:51:59;;;;;;;3.78;3.10;;;25.30;99.90;;;;;;6237448;23;20023;-94
2023/09/16 14:54:26;;;;;;;4.32;3.00;;;25.30;99.90;;;;;;6230620;23;20016;-93
2023/09/16 14:56:53;;;;;;;3.50;2.92;;;25.20;99.90;;;;;;6223182;23;20024;-93
2023/09/16 14:59:19;;;;;;;3.70;2.95;;;25.20;99.90;;;;;;6219290;23;20043;-94
2023/09/16 15:01:45;;;;;;;3.08;2.78;;;25.10;99.90;;;;;;6218941;23;20016;-94
2023/09/16 15:04:11;;;;;;;3.38;3.08;;;25.20;99.90;;;;;;6219799;23;20012;-94
2023/09/16 15:06:37;;;;;;;3.92;3.05;;;25.20;99.90;;;;;;6233727;23;20016;-94
2023/09/16 15:09:03;;;;;;;3.67;2.92;;;25.20;99.90;;;;;;6221417;23;20055;-93
2023/09/16 15:11:29;;;;;;;2.85;2.65;;;25.10;99.90;;;;;;6222906;23;20012;-91
2023/09/16 15:13:56;;;;;;;5.03;2.95;;;25.10;99.90;;;;;;6220674;23;20101;-94
2023/09/16 15:16:25;;;;;;;5.00;2.50;;;25.00;99.90;;;;;;6217569;23;20016;-93
2023/09/16 15:18:52;;;;;;;4.25;2.80;;;24.90;99.90;;;;;;6223308;23;20250;-96
2023/09/16 15:21:18;;;;;;;3.58;2.90;;;24.80;99.90;;;;;;6222295;23;20027;-94
2023/09/16 15:23:44;;;;;;;4.93;4.43;;;24.70;99.90;;;;;;6221238;23;20016;-95
2023/09/16 15:26:31;;;;;;;;;;;;;;;;;;;;;
2023/09/16 15:29:04;;;;;;;11.68;9.80;;;24.80;99.90;;;;;;6137578;23;20012;-94
2023/09/16 15:31:32;;;;;;;11.35;10.13;;;24.70;99.90;;;;;;6238707;23;20012;-92
2023/09/16 17:37:20;;;;;;;9.52;7.10;;;21.30;99.90;;;;;;6198510;22;20362;31
2023/09/16 17:39:46;;;;;;;6.60;5.82;;;;;;;;;;6229859;22;20027;-90
2023/09/16 17:42:11;;;;;;;9.07;6.53;;;21.10;99.90;;;;;;6281913;22;20425;-96
2023/09/16 17:44:37;;;;;;;6.22;4.38;;;21.10;99.90;;;;;;6257338;22;20034;-96
2023/09/16 17:47:03;;;;;;;11.27;9.02;;;21.00;99.90;;;;;;6234274;22;20061;-96
2023/09/16 17:49:29;;;;;;;7.90;6.47;;;21.00;99.90;;;;;;6265576;22;20035;-96
2023/09/16 17:51:54;;;;;;;8.73;7.13;;;20.80;99.90;;;;;;6288114;22;20051;-96
2023/09/16 17:54:20;;;;;;;7.93;6.22;;;20.70;99.90;;;;;;6273565;22;20084;-96
2023/09/16 17:56:46;;;;;;;6.78;5.80;;;20.70;99.90;;;;;;6265897;22;20012;-96
2023/09/16 17:59:16;;;;;;;7.93;5.75;;;20.70;99.90;;;;;;6260695;22;20049;-96
2023/09/16 18:01:42;;;;;;;8.63;7.55;;;20.60;99.90;;;;;;6260111;22;20016;-96
2023/09/16 18:04:08;;;;;;;8.68;6.90;;;20.80;99.90;;;;;;6264614;22;20011;-96
2023/09/16 18:06:36;;;;;;;9.80;8.55;;;20.40;99.90;;;;;;6241457;22;20012;-96
2023/09/16 18:09:03;;;;;;;17.42;12.48;;;20.30;99.90;;;;;;6267131;22;20015;-96
2023/09/16 18:11:29;;;;;;;10.27;7.93;;;20.30;99.90;;;;;;6267084;22;20086;-96
2023/09/16 18:13:55;;;;;;;21.20;16.13;;;20.20;99.90;;;;;;6269121;22;20011;-96
2023/09/16 18:16:23;;;;;;;15.80;10.57;;;20.10;99.90;;;;;;6271084;22;20019;-96
2023/09/16 18:18:49;;;;;;;12.52;10.45;;;20.00;99.90;;;;;;6269100;22;20020;-96
2023/09/16 18:21:15;;;;;;;15.18;12.25;;;19.90;99.90;;;;;;6275226;22;20055;-96
2023/09/16 18:23:44;;;;;;;12.00;9.98;;;19.90;99.90;;;;;;6250831;22;20007;-96
2023/09/16 18:26:10;;;;;;;10.88;8.25;;;19.80;99.90;;;;;;6271424;22;20072;-96
2023/09/16 18:28:37;;;;;;;12.88;8.57;;;19.80;99.90;;;;;;6270714;22;20012;-96
2023/09/16 18:31:03;;;;;;;12.55;11.25;;;19.70;99.90;;;;;;6209190;22;20016;-96
2023/09/16 18:33:30;;;;;;;14.38;10.80;;;19.60;99.90;;;;;;6260137;22;20433;-96
2023/09/16 18:36:00;;;;;;;10.32;8.63;;;19.60;99.90;;;;;;6241764;22;20004;-96
2023/09/16 18:41:16;;;;;;;12.63;9.25;;;;;;;;;;6314867;22;20019;-96
2023/09/16 18:43:41;;;;;;;13.00;9.63;;;19.40;99.90;;;;;;6295043;22;20023;-96
2023/09/16 18:46:07;;;;;;;10.85;8.82;;;19.40;99.90;;;;;;6293177;22;20144;-94
2023/09/16 18:48:34;;;;;;;14.30;11.48;;;19.30;99.90;;;;;;6300679;22;20012;-91
2023/09/16 18:51:00;;;;;;;10.27;9.10;;;19.30;99.90;;;;;;6268014;22;20015;-97
2023/09/16 18:53:26;;;;;;;22.20;17.60;;;19.30;99.90;;;;;;6292895;22;20019;-96
2023/09/16 18:55:53;;;;;;;11.85;10.15;;;19.20;99.90;;;;;;6271818;22;20022;-96
2023/09/16 18:58:21;;;;;;;14.02;11.77;;;19.10;99.90;;;;;;6271886;22;20019;-96
2023/09/16 19:00:47;;;;;;;10.75;9.63;;;19.10;99.90;;;;;;6272305;22;20026;-96
2023/09/16 19:03:13;;;;;;;7.85;7.05;;;19.00;99.90;;;;;;6271667;22;20022;-96
2023/09/16 19:05:45;;;;;;;14.55;12.00;;;18.90;99.90;;;;;;6272611;22;20466;-96
2023/09/16 19:08:11;;;;;;;13.55;10.07;;;18.90;99.90;;;;;;6274356;22;20026;-96
2023/09/16 19:10:39;;;;;;;11.32;9.43;;;18.80;99.90;;;;;;6296038;22;20451;-96
2023/09/16 19:13:04;;;;;;;14.98;7.68;;;18.70;99.90;;;;;;6276187;22;20011;-96
2023/09/16 19:15:32;;;;;;;20.42;16.23;;;;;;;;;;6303770;22;20023;-96
2023/09/16 19:17:59;;;;;;;11.18;9.77;;;;;;;;;;6281786;22;20029;-96
2023/09/16 19:20:25;;;;;;;9.40;8.13;;;;;;;;;;6278635;22;20035;-96
2023/09/16 19:30:32;;;;;;;11.60;8.00;;;;;;;;;;6203259;22;20021;-96
2023/09/16 19:32:58;;;;;;;8.73;7.93;;;;;;;;;;6175885;23;20345;-96
2023/09/16 19:35:24;;;;;;;9.10;8.25;;;;;;;;;;6177494;23;20017;-96
2023/09/16 19:37:51;;;;;;;11.73;10.52;;;;;;;;;;6180889;23;20032;-96
2023/09/16 19:40:21;;;;;;;9.05;7.40;;;;;;;;;;6159177;23;20009;-96
2023/09/16 19:42:48;;;;;;;13.98;10.90;;;;;;;;;;6181483;23;20096;-96
2023/09/16 19:45:36;;;;;;;11.27;8.65;;;;;;;;;;6179328;23;20199;-96
2023/09/16 19:48:02;;;;;;;;;;;;;;;;;;6182422;23;20036;-96
2023/09/16 19:50:30;;;;;;;10.88;7.90;;;;;;;;;;6154493;23;19923;-96
2023/09/16 19:53:19;;;;;;;10.70;9.32;;;;;;;;;;6208605;23;20016;-96
